Springfield, IL (62712)

4:48 AM CST on February 22, 2018 (GMT -0600)
Oak Hill | | Change Station
Active Advisory: Winter Weather Advisory

Elev 581 ft 39.74 °N, 89.56 °W | Updated 30 seconds ago

Fog
Fog
32.2 °F
Feels Like 32 °F
N
2.0
Wind Variable Wind from East

Today
High -- | Low -- °F
--% Chance of Precip.
Yesterday
High -- | Low -- °F
Precip. -- in
Pressure 30.42 in
Visibility 3.0 miles
Clouds Overcast 600 ft
Windchill 32 °F
Dew Point 31 °F
Humidity 98%
Rainfall 0.00 in
Snow Depth Not available.
6:41 AM 5:42 PM
Waxing Crescent, 40% visible
SPECI KSPI 221005Z AUTO 05012KT 3SM -FZRA BR OVC006 01/M01 A3042 RMK AO2 RAE0959FZRAB0959 P0001 I1001 T00061006
Pressure 30.42 in
Visibility 3.0 miles
Clouds Overcast 600 ft
Windchill 32 °F
Dew Point 31 °F
Humidity 98%
Rainfall 0.00 in
Snow Depth Not available.
6:41 AM 5:42 PM
Waxing Crescent, 40% visible
SPECI KSPI 221005Z AUTO 05012KT 3SM -FZRA BR OVC006 01/M01 A3042 RMK AO2 RAE0959FZRAB0959 P0001 I1001 T00061006

Get Your Daily Forecast Email!

Thanks for signing up!

Be on the lookout for a verification email in your inbox.

You'll start receiving severe weather alerts in your inbox..

×

10-Day Weather Forecast

Almanac

Astronomy

Feb. 22, 2018 Rise Set
Actual Time
Civil Twilight
Nautical Twilight
Astronomical Twilight
Moon
Length of Visible Light
Length of Day
Tomorrow will be .
, % of the Moon is Illuminated

Today's Extremes

State Highs State Lows

Community

WunderPhotos

Category 6

Welcome to Category 6. This is the collective home for Weather Underground's featured writeups by Dr. Jeff Masters (right), Bob Henson (left), Chris Burt, and other regular contributors.

Nearby

Air Quality

  Air Quality AQ Index Pollutant
Not available.

Snow Depth

Station Depth Elevation

Earthquake Activity

City Distance Mag. Time & Date
Minimum magnitude displayed is 2.5.

Coastal Water Temperatures

Place Temperature

Stations

Nearby Weather Stations

Station Location Temp. Windchill Dew Point Humidity Wind Precip. Elev Updated Type
                   

Watches & Warnings

Winter Weather Advisory
Issued: 4:05 AM CST Feb. 22, 2018 – National Weather Service

... Winter Weather Advisory remains in effect until 9 am CST this
morning...

* what... light freezing rain. Additional ice accumulations of a
light glaze are expected through 9 am.

* Where... portions of central, east central and west central
Illinois.

* When... until 9 am CST this morning.

* Additional details... the light ice will result in very slippery
conditions on sidewalks, roads and bridges, including during
the morning commute.

Precautionary/preparedness actions...

A Winter Weather Advisory means that periods of freezing rain
will cause travel difficulties. Be prepared for slippery roads.
Slow down and use caution while driving. The latest Road
conditions for Illinois can be obtained by calling 1-800-452-4368.